Terminal Aerodrome Forecast
Issued by NWS Memphis, TN

Home | Current Version | Previous Version | Text Only | Print | Product List | Glossary On
Versions: 1 2 3 4 5 6 7 8 9 10 11 12
636
FTUS44 KMEG 211139
TAFMKL
TAF
KMKL 211139Z 2112/2212 18009KT P6SM BKN020
     FM212200 18011KT P6SM SCT020 BKN060
     FM220300 17012G18KT P6SM BKN050
     FM220800 17014G20KT P6SM VCSH OVC040
     FM221000 17015G21KT P6SM -SHRA BKN025=

USA.gov is the U.S. government's official web portal to all federal, state and local government web resources and services.